Time;durP1;ratioP1;P1;durP2;ratioP2;P2;SDS_P1;SDS_P2;PMS_P1;PMS_P2;Temp;Humidity;BMP_temperature;BMP_pressure;BME280_temperature;BME280_humidity;BME280_pressure;Samples;Min_cycle;Max_cycle;Signal;HPM_P1;HPM_P2
2022/03/18 00:00:18;;;;;;;115.80;53.70;;;;;;;5.79;100.00;98014.03;4997703;28;20058;-66
2022/03/18 00:02:44;;;;;;;111.55;55.17;;;;;;;5.74;100.00;98026.63;5000311;28;20374;-66
2022/03/18 00:05:11;;;;;;;116.25;55.25;;;;;;;5.80;100.00;98024.59;5000468;28;20100;-66
2022/03/18 00:07:38;;;;;;;116.93;56.92;;;;;;;5.75;100.00;98024.72;5002262;28;20048;-66
2022/03/18 00:10:04;;;;;;;109.82;53.92;;;;;;;5.92;100.00;98019.47;4995182;28;20050;-66
2022/03/18 00:12:30;;;;;;;109.93;53.78;;;;;;;5.77;100.00;98019.78;5012994;28;20404;-66
2022/03/18 00:14:55;;;;;;;114.93;52.15;;;;;;;5.82;100.00;98016.16;5012866;28;20026;-67
2022/03/18 00:17:21;;;;;;;113.57;53.35;;;;;;;5.77;100.00;98010.81;5012374;28;20073;-70
2022/03/18 00:19:46;;;;;;;111.57;55.10;;;;;;;5.82;100.00;98014.22;5015439;28;20534;-66
2022/03/18 00:22:12;;;;;;;107.50;53.38;;;;;;;5.97;100.00;98015.84;5012851;28;20026;-67
2022/03/18 00:24:38;;;;;;;107.47;53.25;;;;;;;5.90;100.00;98013.50;5012805;28;20083;-67
2022/03/18 00:27:04;;;;;;;114.00;54.03;;;;;;;5.83;100.00;98010.38;5012202;28;20021;-67
2022/03/18 00:29:31;;;;;;;108.80;53.03;;;;;;;5.77;100.00;98014.34;5012595;28;20029;-67
2022/03/18 00:31:56;;;;;;;114.97;55.45;;;;;;;5.73;100.00;98022.28;5011267;28;20049;-66
2022/03/18 00:34:22;;;;;;;110.80;52.13;;;;;;;5.81;100.00;98014.53;5013085;28;20373;-66
2022/03/18 00:36:47;;;;;;;109.63;52.22;;;;;;;5.90;100.00;98018.94;5012258;28;20057;-67
2022/03/18 00:39:13;;;;;;;106.82;51.90;;;;;;;5.80;100.00;98013.72;5012211;28;20034;-66
2022/03/18 00:41:38;;;;;;;115.70;54.08;;;;;;;5.78;100.00;98018.66;5012323;28;20200;-66
2022/03/18 00:44:04;;;;;;;110.00;53.72;;;;;;;5.78;100.00;98024.13;5012140;28;20030;-66
2022/03/18 00:46:30;;;;;;;109.85;52.85;;;;;;;5.81;100.00;98017.25;5011209;28;20037;-66
2022/03/18 00:54:22;;;;;;;109.82;53.47;;;;;;;5.75;100.00;98024.72;5011856;28;20033;-67
2022/03/18 00:56:48;;;;;;;110.43;54.42;;;;;;;5.74;100.00;98029.34;5011743;28;20080;-67
2022/03/18 00:59:14;;;;;;;107.68;52.55;;;;;;;5.78;100.00;98034.97;5011835;28;20030;-67
2022/03/18 01:01:39;;;;;;;104.43;52.53;;;;;;;5.77;100.00;98021.69;5011979;28;20113;-67
2022/03/18 01:04:05;;;;;;;112.53;54.72;;;;;;;5.73;100.00;98026.94;5011820;28;20029;-67
2022/03/18 01:06:31;;;;;;;110.00;54.08;;;;;;;5.71;100.00;98023.72;5011620;28;20109;-67
2022/03/18 01:08:57;;;;;;;110.32;54.03;;;;;;;5.79;100.00;98033.06;5012106;28;20129;-67
2022/03/18 01:11:22;;;;;;;108.85;50.95;;;;;;;5.84;100.00;98028.31;5011691;28;20034;-67
2022/03/18 01:13:48;;;;;;;98.78;50.95;;;;;;;5.81;100.00;98017.25;5011446;28;20105;-66
2022/03/18 01:16:13;;;;;;;103.45;52.55;;;;;;;5.81;100.00;98026.19;5011413;28;20626;-67
2022/03/18 01:18:39;;;;;;;99.15;49.70;;;;;;;5.80;100.00;98034.66;5011806;28;20038;-67
2022/03/18 01:21:05;;;;;;;103.65;49.85;;;;;;;5.89;100.00;98020.06;5011575;28;20052;-67
2022/03/18 01:23:30;;;;;;;109.18;51.88;;;;;;;5.87;100.00;98016.84;5011586;28;20502;-66
2022/03/18 01:25:55;;;;;;;113.72;53.47;;;;;;;5.70;100.00;98016.66;5009424;28;20029;-66
2022/03/18 01:28:21;;;;;;;109.57;53.65;;;;;;;5.69;100.00;98010.41;5011190;28;20018;-66
2022/03/18 01:30:47;;;;;;;110.90;52.08;;;;;;;5.60;100.00;98014.94;5011387;28;20105;-66
2022/03/18 01:33:12;;;;;;;105.03;50.45;;;;;;;5.70;100.00;98022.88;5011475;28;20109;-66
2022/03/18 01:35:38;;;;;;;111.03;52.88;;;;;;;5.64;100.00;98015.94;5011028;28;20565;-66
2022/03/18 01:38:04;;;;;;;111.70;55.97;;;;;;;5.57;100.00;98014.75;5014335;28;20030;-66
2022/03/18 01:40:29;;;;;;;106.47;54.55;;;;;;;5.51;100.00;98011.28;5016940;28;20034;-66
2022/03/18 01:42:55;;;;;;;119.43;55.75;;;;;;;5.48;100.00;98015.44;5012370;28;20479;-68
2022/03/18 01:45:21;;;;;;;121.75;57.72;;;;;;;5.46;100.00;98014.94;5010874;28;20057;-66
2022/03/18 01:47:47;;;;;;;126.88;57.90;;;;;;;5.42;100.00;98013.09;5011053;28;20029;-66
2022/03/18 01:50:14;;;;;;;120.63;59.00;;;;;;;5.43;100.00;98018.25;5009545;28;20025;-67
2022/03/18 01:52:41;;;;;;;129.50;62.03;;;;;;;5.38;100.00;98012.09;5011086;28;20037;-66
2022/03/18 01:55:07;;;;;;;118.30;55.78;;;;;;;5.40;100.00;98018.84;5010988;28;20030;-66
2022/03/18 01:57:33;;;;;;;119.53;60.17;;;;;;;5.40;100.00;98012.59;5009428;28;20026;-67
2022/03/18 01:59:59;;;;;;;118.43;59.08;;;;;;;5.39;100.00;98013.72;5010547;28;20379;-67
2022/03/18 02:02:25;;;;;;;118.95;57.92;;;;;;;5.33;100.00;98019.25;5007551;28;20108;-67
2022/03/18 02:04:51;;;;;;;120.05;58.78;;;;;;;5.34;100.00;98023.56;5007239;28;20577;-67
2022/03/18 02:07:17;;;;;;;123.13;57.80;;;;;;;5.31;100.00;98026.91;5010672;28;20105;-67
2022/03/18 02:09:43;;;;;;;124.03;57.55;;;;;;;5.32;100.00;98024.97;5010218;28;20096;-67
2022/03/18 02:12:12;;;;;;;122.97;60.10;;;;;;;5.32;100.00;98023.06;5009654;28;20092;-67
2022/03/18 02:14:42;;;;;;;122.33;58.10;;;;;;;5.32;100.00;98022.25;5010712;28;20479;-67
2022/03/18 02:17:10;;;;;;;124.50;58.20;;;;;;;5.30;100.00;98027.19;5010307;28;20026;-66
2022/03/18 02:19:36;;;;;;;113.40;56.40;;;;;;;5.30;100.00;98024.47;5008668;28;20053;-67
2022/03/18 02:22:14;;;;;;;121.53;57.65;;;;;;;5.30;100.00;98028.00;5010551;28;20133;-67
2022/03/18 02:24:45;;;;;;;128.55;57.58;;;;;;;5.30;100.00;98035.34;5009534;28;20417;-67
2022/03/18 02:27:11;;;;;;;133.43;62.00;;;;;;;5.31;100.00;98034.22;5009473;28;20040;-67
2022/03/18 02:29:37;;;;;;;128.77;57.10;;;;;;;5.34;100.00;98034.44;5008909;28;20490;-67
2022/03/18 02:32:04;;;;;;;121.25;57.63;;;;;;;5.33;100.00;98046.41;5010223;28;20033;-67
2022/03/18 02:34:29;;;;;;;116.88;55.15;;;;;;;5.50;100.00;98039.59;5006077;28;20044;-67
2022/03/18 02:36:55;;;;;;;111.65;55.03;;;;;;;5.48;100.00;98048.03;5009897;28;20104;-65
2022/03/18 02:39:20;;;;;;;116.72;55.45;;;;;;;5.46;100.00;98046.75;5009788;28;20587;-66
2022/03/18 02:41:46;;;;;;;114.35;55.72;;;;;;;5.48;100.00;98041.81;5008562;28;20448;-65
2022/03/18 02:44:11;;;;;;;111.18;53.58;;;;;;;5.53;100.00;98047.94;5008511;28;20030;-66
2022/03/18 02:46:37;;;;;;;111.22;52.30;;;;;;;5.65;100.00;98044.72;5009843;28;20109;-66
2022/03/18 02:49:04;;;;;;;107.53;53.25;;;;;;;5.78;100.00;98045.88;5007228;28;20414;-65
2022/03/18 02:51:29;;;;;;;109.93;54.10;;;;;;;5.62;100.00;98042.63;5010794;28;20037;-66
2022/03/18 02:53:56;;;;;;;115.13;54.92;;;;;;;5.60;100.00;98046.75;5008263;28;20034;-66
2022/03/18 02:56:21;;;;;;;109.22;52.17;;;;;;;5.67;100.00;98042.53;5009487;28;20045;-66
2022/03/18 02:58:47;;;;;;;105.38;51.65;;;;;;;5.86;100.00;98047.06;5009788;28;20053;-66
2022/03/18 03:01:12;;;;;;;103.72;51.30;;;;;;;5.77;100.00;98044.25;5009098;28;20036;-66
2022/03/18 03:03:37;;;;;;;102.72;51.55;;;;;;;5.93;100.00;98048.25;5009819;28;20032;-67
2022/03/18 03:08:47;;;;;;;107.93;52.28;;;;;;;5.57;100.00;98050.88;5009291;28;20080;-68
2022/03/18 03:11:13;;;;;;;95.40;49.13;;;;;;;5.71;100.00;98059.06;5011024;28;20025;-67
2022/03/18 03:13:38;;;;;;;114.32;53.83;;;;;;;5.69;100.00;98048.47;5009224;28;20026;-67
2022/03/18 03:16:04;;;;;;;108.25;51.20;;;;;;;5.72;100.00;98050.56;5010783;28;20037;-65
2022/03/18 03:18:30;;;;;;;99.93;50.42;;;;;;;5.80;100.00;98062.69;5011330;28;20470;-66
2022/03/18 03:20:56;;;;;;;103.72;50.95;;;;;;;5.78;100.00;98056.72;5017298;28;20026;-66
2022/03/18 03:23:23;;;;;;;106.75;51.67;;;;;;;5.75;100.00;98058.13;5022205;28;20084;-66
2022/03/18 03:25:50;;;;;;;101.20;49.67;;;;;;;5.60;100.00;98068.47;5021363;28;20045;-66
2022/03/18 03:28:17;;;;;;;97.97;49.20;;;;;;;5.71;100.00;98068.00;5019786;28;20033;-66
2022/03/18 03:30:42;;;;;;;100.18;50.97;;;;;;;5.58;100.00;98059.81;5021473;28;20062;-67
2022/03/18 03:33:08;;;;;;;106.40;49.75;;;;;;;5.69;100.00;98072.09;5021710;28;20030;-66
2022/03/18 03:35:33;;;;;;;100.47;49.00;;;;;;;5.51;100.00;98066.47;5015759;28;20034;-65
2022/03/18 03:37:59;;;;;;;107.20;52.25;;;;;;;5.53;100.00;98075.13;5016981;28;20467;-66
2022/03/18 03:40:25;;;;;;;98.63;49.35;;;;;;;5.64;100.00;98066.78;5009741;28;20083;-65
2022/03/18 03:42:50;;;;;;;104.28;50.30;;;;;;;5.69;100.00;98075.66;5019344;28;20594;-65
2022/03/18 03:45:16;;;;;;;98.00;49.42;;;;;;;5.60;100.00;98087.50;5012200;28;20042;-65
2022/03/18 03:47:42;;;;;;;102.47;50.97;;;;;;;5.56;100.00;98084.59;5011556;28;20095;-65
2022/03/18 03:50:09;;;;;;;103.22;51.92;;;;;;;5.57;100.00;98079.97;5008036;28;20149;-66
2022/03/18 03:52:35;;;;;;;98.60;49.05;;;;;;;5.79;100.00;98074.66;5008962;28;20097;-65
2022/03/18 03:55:06;;;;;;;97.55;47.63;;;;;;;5.79;100.00;98069.22;5009367;28;20041;-66
2022/03/18 03:57:32;;;;;;;101.38;48.90;;;;;;;5.70;100.00;98076.44;5009852;28;20414;-66
2022/03/18 03:59:58;;;;;;;100.28;50.97;;;;;;;5.75;100.00;98079.88;5010590;28;20026;-65
2022/03/18 04:02:24;;;;;;;106.10;52.10;;;;;;;5.63;100.00;98084.19;5010759;28;20100;-65
2022/03/18 04:04:50;;;;;;;96.78;48.03;;;;;;;5.82;100.00;98087.63;5009402;28;20109;-65
2022/03/18 04:07:15;;;;;;;95.50;48.28;;;;;;;5.82;100.00;98086.84;5009399;28;20022;-66
2022/03/18 04:09:41;;;;;;;93.13;47.22;;;;;;;5.68;100.00;98089.53;5031711;23;20026;-69
2022/03/18 04:12:08;;;;;;;99.40;49.30;;;;;;;5.60;100.00;98095.66;5009754;28;20041;-68
2022/03/18 04:14:34;;;;;;;99.45;48.95;;;;;;;5.45;100.00;98094.81;5011710;28;20029;-67
2022/03/18 04:17:01;;;;;;;108.15;52.10;;;;;;;5.42;100.00;98100.06;5009561;28;20026;-67
2022/03/18 04:19:27;;;;;;;103.85;51.25;;;;;;;5.55;100.00;98099.28;5006460;28;20029;-68
2022/03/18 04:21:52;;;;;;;102.35;51.83;;;;;;;5.42;100.00;98100.88;5013801;28;20106;-67
2022/03/18 04:24:18;;;;;;;105.78;52.53;;;;;;;5.42;100.00;98106.31;5012037;28;20030;-67
2022/03/18 04:26:43;;;;;;;110.82;51.60;;;;;;;5.35;100.00;98103.97;5014073;28;20440;-66
2022/03/18 04:29:10;;;;;;;102.43;49.75;;;;;;;5.40;100.00;98104.97;5014680;28;20041;-66
2022/03/18 04:31:35;;;;;;;108.75;50.42;;;;;;;5.52;100.00;98105.31;5014786;28;20026;-67
2022/03/18 04:34:01;;;;;;;107.93;51.00;;;;;;;5.53;100.00;98101.50;5012603;28;20030;-69
2022/03/18 04:36:26;;;;;;;103.80;49.50;;;;;;;5.45;100.00;98111.13;5014124;28;20470;-66
2022/03/18 04:38:52;;;;;;;107.35;50.08;;;;;;;5.60;100.00;98111.97;5013869;28;20398;-67
2022/03/18 04:41:17;;;;;;;107.97;52.70;;;;;;;5.48;100.00;98112.47;5012839;28;20033;-67
2022/03/18 04:43:43;;;;;;;94.90;48.03;;;;;;;5.56;100.00;98114.47;5014465;28;20502;-66
2022/03/18 04:46:08;;;;;;;94.22;48.35;;;;;;;5.67;100.00;98117.81;5012050;28;20406;-67
2022/03/18 04:48:34;;;;;;;100.43;49.40;;;;;;;5.69;100.00;98116.44;5013942;28;20036;-67
2022/03/18 04:50:59;;;;;;;100.30;48.45;;;;;;;5.79;100.00;98122.78;5011879;28;20103;-67
2022/03/18 04:53:24;;;;;;;97.82;49.17;;;;;;;5.61;100.00;98105.44;5012402;28;20041;-66
2022/03/18 04:55:50;;;;;;;99.47;46.92;;;;;;;5.69;100.00;98121.03;5010866;28;20041;-66
2022/03/18 04:58:15;;;;;;;98.28;49.40;;;;;;;5.63;100.00;98111.38;5012449;28;20566;-68
2022/03/18 05:00:41;;;;;;;99.18;50.60;;;;;;;5.58;100.00;98116.91;5013728;28;20026;-66
2022/03/18 05:03:07;;;;;;;104.32;49.78;;;;;;;5.78;100.00;98115.72;5012414;28;20399;-67
2022/03/18 05:05:32;;;;;;;101.50;50.60;;;;;;;5.56;100.00;98117.19;5008783;28;20088;-67
2022/03/18 05:07:57;;;;;;;98.15;49.15;;;;;;;5.53;100.00;98113.19;5011275;28;20398;-68
2022/03/18 05:10:24;;;;;;;100.25;48.80;;;;;;;5.65;100.00;98115.41;5013759;28;20049;-67
2022/03/18 05:12:50;;;;;;;97.72;47.40;;;;;;;5.54;100.00;98122.13;5011206;28;20030;-68
2022/03/18 05:15:16;;;;;;;103.15;50.20;;;;;;;5.52;100.00;98117.00;5012614;28;20054;-67
2022/03/18 05:17:50;;;;;;;99.50;50.05;;;;;;;5.68;100.00;98122.16;5013522;28;20026;-68
2022/03/18 05:20:15;;;;;;;101.78;47.63;;;;;;;5.55;100.00;98121.84;5011301;28;20037;-68
2022/03/18 05:22:40;;;;;;;95.60;49.30;;;;;;;5.55;100.00;98126.47;5003287;28;20040;-67
2022/03/18 05:25:06;;;;;;;100.93;48.25;;;;;;;5.52;100.00;98121.63;5007191;28;20030;-67
2022/03/18 05:27:32;;;;;;;100.07;48.65;;;;;;;5.61;100.00;98129.91;5006679;28;20076;-67
2022/03/18 05:29:57;;;;;;;105.40;51.17;;;;;;;5.58;100.00;98122.34;5013265;28;20049;-67
2022/03/18 05:32:22;;;;;;;97.35;48.65;;;;;;;5.51;100.00;98118.09;5020944;28;20042;-67
2022/03/18 05:34:48;;;;;;;108.18;52.72;;;;;;;5.59;100.00;98118.53;5014194;28;20057;-67
2022/03/18 05:37:13;;;;;;;110.72;54.55;;;;;;;5.63;100.00;98117.63;5011204;28;20038;-66
2022/03/18 05:39:39;;;;;;;106.32;49.75;;;;;;;5.63;100.00;98120.34;5030999;28;20038;-67
2022/03/18 05:42:05;;;;;;;99.38;48.33;;;;;;;5.58;100.00;98122.34;5027527;28;20041;-67
2022/03/18 05:44:30;;;;;;;100.25;49.83;;;;;;;5.55;100.00;98118.31;5032751;28;20029;-66
2022/03/18 05:46:56;;;;;;;99.35;49.42;;;;;;;5.62;100.00;98129.59;5025272;28;20489;-67
2022/03/18 05:49:22;;;;;;;101.78;49.78;;;;;;;5.50;100.00;98129.28;5014113;28;20092;-67
2022/03/18 05:51:48;;;;;;;102.68;50.97;;;;;;;5.42;100.00;98127.22;5010419;28;20034;-67
2022/03/18 05:54:14;;;;;;;98.15;48.85;;;;;;;5.47;100.00;98143.44;5006909;28;20462;-68
2022/03/18 05:56:55;;;;;;;106.32;50.55;;;;;;;5.47;100.00;98129.84;5017759;28;20085;-67
2022/03/18 05:59:27;;;;;;;96.85;49.17;;;;;;;5.45;100.00;98132.06;5020822;28;20048;-67
2022/03/18 06:01:56;;;;;;;98.88;50.25;;;;;;;5.48;100.00;98136.91;5023110;28;20034;-67
2022/03/18 06:04:22;;;;;;;102.97;47.00;;;;;;;5.53;100.00;98147.72;5013312;28;20030;-67
2022/03/18 06:06:48;;;;;;;96.65;49.25;;;;;;;5.47;100.00;98148.88;5010288;28;20037;-68
2022/03/18 06:11:59;;;;;;;96.50;49.30;;;;;;;5.45;100.00;98143.75;5033355;28;20077;-67
2022/03/18 06:14:32;;;;;;;101.90;51.28;;;;;;;5.47;100.00;98148.88;5020208;28;20084;-66
2022/03/18 06:17:03;;;;;;;97.20;49.78;;;;;;;5.54;100.00;98146.59;5028878;28;20030;-66
2022/03/18 06:19:33;;;;;;;105.88;48.55;;;;;;;5.54;100.00;98147.38;5010012;28;20030;-65
2022/03/18 06:21:59;;;;;;;105.20;50.60;;;;;;;5.50;100.00;98151.00;5003974;28;20042;-67
2022/03/18 06:24:25;;;;;;;103.65;50.83;;;;;;;5.44;100.00;98153.00;4995809;28;20044;-67
2022/03/18 06:26:52;;;;;;;99.45;51.75;;;;;;;5.44;100.00;98155.72;5009612;28;20026;-68
2022/03/18 06:29:18;;;;;;;105.03;53.45;;;;;;;5.41;100.00;98161.75;5010274;28;20071;-66
2022/03/18 06:31:43;;;;;;;100.07;49.28;;;;;;;5.49;100.00;98166.53;5009604;28;20386;-67
2022/03/18 06:34:10;;;;;;;100.15;51.85;;;;;;;5.44;100.00;98147.56;5012257;28;20029;-67
2022/03/18 06:36:36;;;;;;;98.90;49.80;;;;;;;5.53;100.00;98162.09;5010574;28;20030;-67
2022/03/18 06:39:05;;;;;;;99.30;50.63;;;;;;;5.54;100.00;98169.13;5007954;28;20046;-66
2022/03/18 06:41:31;;;;;;;101.95;49.85;;;;;;;5.53;100.00;98172.16;5001168;28;20053;-68
2022/03/18 06:43:57;;;;;;;97.78;49.03;;;;;;;5.46;100.00;98175.25;4999142;28;20045;-69
2022/03/18 06:46:23;;;;;;;96.78;49.05;;;;;;;5.60;100.00;98175.31;4994988;28;20497;-68
2022/03/18 06:48:49;;;;;;;95.18;48.97;;;;;;;5.60;100.00;98169.03;5000476;28;20049;-68
2022/03/18 06:51:15;;;;;;;102.18;53.40;;;;;;;5.53;100.00;98178.41;4993131;28;20046;-67
2022/03/18 06:53:41;;;;;;;104.63;52.28;;;;;;;5.67;100.00;98181.16;4999967;28;20053;-67
2022/03/18 06:56:07;;;;;;;95.80;48.28;;;;;;;5.69;100.00;98180.84;4997110;28;20049;-67
2022/03/18 06:58:34;;;;;;;93.03;46.50;;;;;;;5.82;100.00;98177.38;5000693;28;20057;-67
2022/03/18 07:01:00;;;;;;;99.40;48.67;;;;;;;5.88;100.00;98184.31;5003012;28;20042;-69
2022/03/18 07:03:25;;;;;;;91.30;47.33;;;;;;;5.73;100.00;98185.41;4999258;28;20068;-68
2022/03/18 07:05:51;;;;;;;98.72;48.55;;;;;;;5.93;100.00;98186.94;4999163;28;20506;-68
2022/03/18 07:08:16;;;;;;;92.45;48.13;;;;;;;5.83;100.00;98183.59;4997285;28;20041;-68
2022/03/18 07:10:42;;;;;;;98.15;49.15;;;;;;;5.99;100.00;98186.88;5001749;28;20057;-67
2022/03/18 07:13:07;;;;;;;96.72;51.25;;;;;;;5.92;100.00;98201.66;4995236;28;20116;-68
2022/03/18 07:15:33;;;;;;;91.18;45.72;;;;;;;6.11;100.00;98200.81;5001483;28;20037;-67
2022/03/18 07:17:59;;;;;;;100.55;51.13;;;;;;;6.00;100.00;98196.69;5000621;28;20073;-68
2022/03/18 07:20:32;;;;;;;95.63;48.92;;;;;;;6.01;100.00;98201.00;4995964;28;20525;-68
2022/03/18 07:23:02;;;;;;;98.05;49.83;;;;;;;5.99;100.00;98200.50;5002986;28;20088;-68
2022/03/18 07:25:28;;;;;;;98.47;49.67;;;;;;;6.06;100.00;98204.41;4999749;28;20072;-68
2022/03/18 07:27:54;;;;;;;90.03;47.53;;;;;;;6.29;100.00;98213.53;5001113;28;20044;-68
2022/03/18 07:30:20;;;;;;;96.70;48.60;;;;;;;6.25;100.00;98215.25;4993621;28;20046;-67
2022/03/18 07:32:46;;;;;;;92.80;48.65;;;;;;;6.08;100.00;98207.66;5001048;28;20069;-66
2022/03/18 07:35:11;;;;;;;93.60;47.20;;;;;;;6.22;100.00;98223.19;4998130;28;20081;-67
2022/03/18 07:37:37;;;;;;;92.60;46.08;;;;;;;6.35;100.00;98210.72;4996120;28;20057;-66
2022/03/18 07:40:06;;;;;;;88.18;44.58;;;;;;;6.26;100.00;98216.03;5000185;28;20069;-65
2022/03/18 07:42:50;;;;;;;101.07;50.33;;;;;;;6.17;100.00;98217.84;5001997;28;20046;-70
2022/03/18 07:45:27;;;;;;;105.47;52.95;;;;;;;6.21;100.00;98214.25;4987598;28;20073;-70
2022/03/18 07:47:54;;;;;;;103.07;49.45;;;;;;;6.37;100.00;98219.38;5002503;28;20038;-71
2022/03/18 07:50:21;;;;;;;90.63;46.17;;;;;;;6.43;100.00;98210.81;4998339;28;20097;-71
2022/03/18 07:52:53;;;;;;;99.60;49.05;;;;;;;6.27;100.00;98212.22;5002611;28;20069;-70
2022/03/18 07:55:20;;;;;;;98.20;46.88;;;;;;;6.49;100.00;98214.25;4998397;28;20042;-71
2022/03/18 07:57:46;;;;;;;97.20;49.08;;;;;;;6.44;100.00;98206.16;5006632;28;20141;-72
2022/03/18 08:00:13;;;;;;;96.22;49.95;;;;;;;6.25;100.00;98219.88;5000251;28;20045;-70
2022/03/18 08:02:40;;;;;;;100.15;47.60;;;;;;;6.23;100.00;98220.19;5007701;28;20045;-71
2022/03/18 08:05:06;;;;;;;93.05;49.80;;;;;;;6.24;100.00;98220.97;5001716;28;20053;-69
2022/03/18 08:07:33;;;;;;;97.07;48.90;;;;;;;6.45;100.00;98221.41;5005571;28;20136;-70
2022/03/18 08:09:59;;;;;;;95.88;49.70;;;;;;;6.32;100.00;98221.09;5007580;28;20069;-69
2022/03/18 08:12:24;;;;;;;97.90;49.75;;;;;;;6.28;100.00;98211.94;5001191;28;20902;-70
2022/03/18 08:14:50;;;;;;;95.70;49.03;;;;;;;6.27;100.00;98213.03;5005945;28;20196;-69
2022/03/18 08:17:15;;;;;;;98.65;51.85;;;;;;;6.39;100.00;98228.88;5003462;28;20506;-71
2022/03/18 08:19:41;;;;;;;96.25;48.83;;;;;;;6.54;100.00;98233.19;5007296;28;20045;-69
2022/03/18 08:22:07;;;;;;;96.80;47.85;;;;;;;6.45;100.00;98232.28;4984992;28;20462;-71
2022/03/18 08:24:32;;;;;;;95.47;46.00;;;;;;;6.52;100.00;98221.81;5013505;28;20045;-70
2022/03/18 08:26:58;;;;;;;96.65;51.90;;;;;;;6.54;100.00;98233.19;5025095;28;20037;-69
2022/03/18 08:29:23;;;;;;;99.70;47.20;;;;;;;6.79;100.00;98241.94;5018855;28;20258;-69
2022/03/18 08:31:48;;;;;;;105.60;50.80;;;;;;;6.53;100.00;98236.22;5011179;28;20080;-69
2022/03/18 08:34:15;;;;;;;92.47;48.45;;;;;;;6.67;100.00;98239.75;5007775;28;20078;-70
2022/03/18 08:36:41;;;;;;;100.63;50.25;;;;;;;6.70;100.00;98245.38;5010505;28;20049;-70
2022/03/18 08:39:06;;;;;;;92.75;50.10;;;;;;;6.47;100.00;98249.13;5006843;28;20042;-71
2022/03/18 08:41:31;;;;;;;98.72;50.45;;;;;;;6.56;100.00;98249.22;5006580;28;20513;-71
2022/03/18 08:43:57;;;;;;;100.13;49.45;;;;;;;6.67;100.00;98256.09;5007188;28;20057;-72
2022/03/18 08:46:22;;;;;;;93.13;46.63;;;;;;;6.86;100.00;98248.63;5008787;28;20325;-72
2022/03/18 08:48:48;;;;;;;96.97;46.75;;;;;;;6.86;100.00;98245.88;5025752;28;20084;-70
2022/03/18 08:51:15;;;;;;;94.70;49.15;;;;;;;6.73;100.00;98252.13;5020345;28;20049;-70
2022/03/18 08:53:41;;;;;;;96.22;46.58;;;;;;;6.74;100.00;98251.03;5024996;28;20101;-70
2022/03/18 08:56:06;;;;;;;92.25;45.20;;;;;;;6.92;100.00;98243.06;5011636;28;20406;-70
2022/03/18 08:58:32;;;;;;;94.18;45.70;;;;;;;6.94;100.00;98251.72;4987948;28;20068;-70
2022/03/18 09:00:58;;;;;;;88.43;45.58;;;;;;;6.88;100.00;98257.28;5005782;28;20048;-70
2022/03/18 09:03:23;;;;;;;91.47;48.00;;;;;;;6.72;100.00;98244.25;5001049;28;20615;-69
2022/03/18 09:05:49;;;;;;;94.53;48.25;;;;;;;6.87;100.00;98255.66;5005606;28;20152;-69
2022/03/18 09:08:14;;;;;;;91.28;44.05;;;;;;;6.98;100.00;98258.97;5000990;28;20459;-68
2022/03/18 09:10:40;;;;;;;92.70;46.58;;;;;;;6.83;100.00;98260.09;5006049;28;20068;-68
2022/03/18 09:13:06;;;;;;;90.85;50.72;;;;;;;6.81;100.00;98254.16;4982555;28;20081;-69
2022/03/18 09:15:31;;;;;;;91.40;46.80;;;;;;;7.02;100.00;98270.06;4983982;28;20030;-70
2022/03/18 09:17:58;;;;;;;96.88;49.17;;;;;;;6.95;100.00;98259.59;4987465;28;20046;-71
2022/03/18 09:20:24;;;;;;;99.68;44.80;;;;;;;7.32;100.00;98268.59;4981166;28;20563;-70
2022/03/18 09:22:49;;;;;;;89.18;44.13;;;;;;;7.42;100.00;98264.84;4986568;28;20038;-71
2022/03/18 09:25:15;;;;;;;88.95;46.40;;;;;;;7.07;100.00;98259.88;4978794;28;20125;-70
2022/03/18 09:27:41;;;;;;;92.93;47.38;;;;;;;6.96;100.00;98265.84;4997633;28;20053;-70
2022/03/18 09:30:09;;;;;;;95.03;46.30;;;;;;;7.11;100.00;98270.97;4999773;28;20043;-70
2022/03/18 09:32:35;;;;;;;90.32;43.72;;;;;;;7.54;100.00;98270.56;4991898;28;20043;-71
2022/03/18 09:35:02;;;;;;;83.07;43.05;;;;;;;7.48;100.00;98269.06;4988311;28;20129;-70
2022/03/18 09:37:27;;;;;;;81.65;40.63;;;;;;;7.41;100.00;98263.22;4982783;28;20043;-69
2022/03/18 09:39:53;;;;;;;88.25;48.88;;;;;;;7.18;100.00;98276.00;4986467;28;20038;-70
2022/03/18 09:42:18;;;;;;;87.75;44.38;;;;;;;7.50;100.00;98268.75;4979382;28;20042;-69
2022/03/18 09:44:44;;;;;;;95.22;46.55;;;;;;;7.57;100.00;98272.66;4985331;28;20074;-68
2022/03/18 09:47:09;;;;;;;82.00;42.22;;;;;;;7.77;100.00;98265.94;4962988;28;20506;-69
2022/03/18 09:49:36;;;;;;;80.93;43.08;;;;;;;8.37;99.17;98275.63;4985603;28;20470;-70
2022/03/18 09:52:05;;;;;;;81.30;42.10;;;;;;;8.58;98.46;98269.63;4985558;28;20050;-69
2022/03/18 09:54:34;;;;;;;77.82;40.65;;;;;;;8.27;99.42;98286.00;5001230;28;20047;-70
2022/03/18 09:57:01;;;;;;;81.60;46.55;;;;;;;7.60;100.00;98285.69;5008770;28;20030;-69
2022/03/18 09:59:27;;;;;;;79.60;42.38;;;;;;;7.80;100.00;98286.34;4992794;28;20074;-69
2022/03/18 10:02:33;;;;;;;80.88;42.75;;;;;;;7.70;100.00;98290.09;4985708;28;20050;-70
2022/03/18 10:05:00;;;;;;;81.28;43.33;;;;;;;7.79;100.00;98287.44;5000244;28;20053;-70
2022/03/18 10:07:27;;;;;;;82.38;39.78;;;;;;;8.02;99.84;98280.06;4978521;28;20038;-69
2022/03/18 10:10:05;;;;;;;87.68;41.45;;;;;;;8.03;98.86;98289.84;4986211;28;20499;-71
2022/03/18 10:12:35;;;;;;;81.93;40.35;;;;;;;8.16;97.66;98291.72;5022656;23;20050;-68
2022/03/18 10:15:11;;;;;;;74.57;38.95;;;;;;;8.37;98.42;98267.44;5004433;28;20038;-67
2022/03/18 10:17:48;;;;;;;73.55;40.08;;;;;;;8.42;95.41;98285.63;5003977;28;20042;-67
2022/03/18 10:20:23;;;;;;;80.35;44.60;;;;;;;8.40;98.06;98279.63;5000143;28;20042;-63
2022/03/18 10:22:50;;;;;;;76.28;37.45;;;;;;;9.06;92.38;98287.97;4995174;28;20387;-67
2022/03/18 10:25:36;;;;;;;79.45;40.72;;;;;;;9.06;90.93;98285.22;4991993;28;20046;-65
2022/03/18 10:28:02;;;;;;;79.15;41.75;;;;;;;8.90;92.99;98282.13;4995557;28;20122;-64
2022/03/18 10:30:28;;;;;;;78.05;41.42;;;;;;;8.63;93.36;98272.22;4994135;28;20531;-64
2022/03/18 10:32:53;;;;;;;75.20;41.35;;;;;;;8.65;90.74;98277.38;4995970;28;20442;-67
2022/03/18 10:38:14;;;;;;;78.05;37.20;;;;;;;8.78;92.40;98293.66;4992514;28;20507;-66
2022/03/18 10:40:39;;;;;;;71.88;39.47;;;;;;;9.03;90.88;98301.47;4992591;28;20110;-66
2022/03/18 10:43:07;;;;;;;69.43;37.35;;;;;;;8.87;90.81;98299.16;4992125;28;20516;-69
2022/03/18 10:45:33;;;;;;;69.65;36.63;;;;;;;9.02;91.77;98292.47;4996753;28;20441;-66
2022/03/18 10:48:13;;;;;;;68.97;37.75;;;;;;;8.85;91.61;98286.94;4996538;28;20058;-67
2022/03/18 10:50:40;;;;;;;76.10;37.63;;;;;;;9.27;91.20;98287.34;4994169;28;20045;-68
2022/03/18 10:53:10;;;;;;;74.15;39.15;;;;;;;9.02;90.58;98297.09;4987969;28;20045;-67
2022/03/18 10:55:43;;;;;;;78.45;41.47;;;;;;;8.69;92.66;98289.28;4986500;28;20137;-66
2022/03/18 10:58:15;;;;;;;71.85;38.25;;;;;;;8.76;91.78;98300.56;4982715;28;20062;-67
2022/03/18 11:00:45;;;;;;;82.07;39.42;;;;;;;8.92;89.90;98287.28;4998657;28;20034;-67
2022/03/18 11:03:13;;;;;;;;;;;;;;;9.11;88.98;98265.13;4982602;28;20038;-68
2022/03/18 11:05:40;;;;;;;72.43;36.10;;;;;;;9.46;87.20;98282.41;4992139;28;19976;-66
2022/03/18 11:08:11;;;;;;;66.63;35.15;;;;;;;9.54;87.53;98299.94;4989656;28;20034;-68
2022/03/18 11:13:29;;;;;;;67.53;34.00;;;;;;;9.23;87.33;98280.91;4990674;28;20112;-67
2022/03/18 11:15:55;;;;;;;67.13;34.50;;;;;;;9.33;87.08;98284.16;4990600;28;20065;-66
2022/03/18 11:18:20;;;;;;;69.53;35.67;;;;;;;9.64;87.48;98296.88;4987300;28;20395;-68
2022/03/18 11:20:50;;;;;;;69.85;34.20;;;;;;;9.94;85.68;98286.09;4997120;28;20105;-67
2022/03/18 11:23:17;;;;;;;;;;;;;;;9.99;85.79;98298.81;4988686;28;20053;-67
2022/03/18 11:25:45;;;;;;;67.10;36.70;;;;;;;9.61;86.69;98288.53;4994716;28;19940;-66
2022/03/18 11:28:15;;;;;;;61.58;34.83;;;;;;;9.97;85.70;98290.13;4988822;28;20066;-67